sensor_id;sensor_type;location;lat;lon;timestamp;temperature;humidity
22192;DHT22;11261;52.456;10.850;2022-08-01T00:01:30;20.30;99.90
22192;DHT22;11261;52.456;10.850;2022-08-01T00:03:58;20.50;99.90
22192;DHT22;11261;52.456;10.850;2022-08-01T00:06:26;20.70;99.90
22192;DHT22;11261;52.456;10.850;2022-08-01T00:08:55;20.50;99.90
22192;DHT22;11261;52.456;10.850;2022-08-01T00:11:23;20.60;99.90
22192;DHT22;11261;52.456;10.850;2022-08-01T00:13:51;20.50;99.90
22192;DHT22;11261;52.456;10.850;2022-08-01T00:16:19;20.20;99.90
22192;DHT22;11261;52.456;10.850;2022-08-01T00:18:50;20.20;99.90
22192;DHT22;11261;52.456;10.850;2022-08-01T00:21:19;20.20;99.90
22192;DHT22;11261;52.456;10.850;2022-08-01T00:23:47;20.30;99.90
22192;DHT22;11261;52.456;10.850;2022-08-01T00:26:15;20.20;99.90
22192;DHT22;11261;52.456;10.850;2022-08-01T00:28:44;20.00;99.90
22192;DHT22;11261;52.456;10.850;2022-08-01T00:31:12;19.90;99.90
22192;DHT22;11261;52.456;10.850;2022-08-01T00:33:40;19.80;99.90
22192;DHT22;11261;52.456;10.850;2022-08-01T00:36:10;19.90;99.90
22192;DHT22;11261;52.456;10.850;2022-08-01T00:38:38;19.90;99.90
22192;DHT22;11261;52.456;10.850;2022-08-01T00:41:06;20.10;99.90
22192;DHT22;11261;52.456;10.850;2022-08-01T00:43:34;20.00;99.90
22192;DHT22;11261;52.456;10.850;2022-08-01T00:46:03;19.90;99.90
22192;DHT22;11261;52.456;10.850;2022-08-01T00:48:31;20.30;99.90
22192;DHT22;11261;52.456;10.850;2022-08-01T00:50:59;20.20;99.90
22192;DHT22;11261;52.456;10.850;2022-08-01T00:53:29;20.40;99.90
22192;DHT22;11261;52.456;10.850;2022-08-01T00:56:18;20.70;99.90
22192;DHT22;11261;52.456;10.850;2022-08-01T00:58:46;20.60;99.90
22192;DHT22;11261;52.456;10.850;2022-08-01T01:01:16;20.30;99.90
22192;DHT22;11261;52.456;10.850;2022-08-01T01:03:45;20.30;99.90
22192;DHT22;11261;52.456;10.850;2022-08-01T01:06:34;20.50;99.90
22192;DHT22;11261;52.456;10.850;2022-08-01T01:09:23;20.50;99.90
22192;DHT22;11261;52.456;10.850;2022-08-01T01:14:44;20.80;99.90
22192;DHT22;11261;52.456;10.850;2022-08-01T01:17:21;20.40;99.90
22192;DHT22;11261;52.456;10.850;2022-08-01T01:20:13;20.30;99.90
22192;DHT22;11261;52.456;10.850;2022-08-01T01:28:51;20.40;99.90
22192;DHT22;11261;52.456;10.850;2022-08-01T01:31:21;20.30;99.90
22192;DHT22;11261;52.456;10.850;2022-08-01T01:33:53;20.10;99.90
22192;DHT22;11261;52.456;10.850;2022-08-01T01:36:22;20.20;99.90
22192;DHT22;11261;52.456;10.850;2022-08-01T01:38:53;20.20;99.90
22192;DHT22;11261;52.456;10.850;2022-08-01T01:41:23;20.10;99.90
22192;DHT22;11261;52.456;10.850;2022-08-01T01:43:53;20.20;99.90
22192;DHT22;11261;52.456;10.850;2022-08-01T01:46:24;20.30;99.90
22192;DHT22;11261;52.456;10.850;2022-08-01T01:48:55;20.10;99.90
22192;DHT22;11261;52.456;10.850;2022-08-01T01:51:25;20.20;99.90
22192;DHT22;11261;52.456;10.850;2022-08-01T01:53:55;20.20;99.90
22192;DHT22;11261;52.456;10.850;2022-08-01T01:56:25;20.40;99.90
22192;DHT22;11261;52.456;10.850;2022-08-01T01:58:59;20.20;99.90
22192;DHT22;11261;52.456;10.850;2022-08-01T02:01:29;20.20;99.90
22192;DHT22;11261;52.456;10.850;2022-08-01T02:04:20;20.10;99.90
22192;DHT22;11261;52.456;10.850;2022-08-01T02:06:51;20.00;99.90
22192;DHT22;11261;52.456;10.850;2022-08-01T02:09:21;20.10;99.90
22192;DHT22;11261;52.456;10.850;2022-08-01T02:11:51;20.20;99.90
22192;DHT22;11261;52.456;10.850;2022-08-01T02:14:37;20.00;99.90
22192;DHT22;11261;52.456;10.850;2022-08-01T02:17:09;20.30;99.90
22192;DHT22;11261;52.456;10.850;2022-08-01T02:19:38;20.20;99.90
22192;DHT22;11261;52.456;10.850;2022-08-01T02:22:10;19.90;99.90
22192;DHT22;11261;52.456;10.850;2022-08-01T02:24:42;20.10;99.90
22192;DHT22;11261;52.456;10.850;2022-08-01T02:27:15;20.00;99.90
22192;DHT22;11261;52.456;10.850;2022-08-01T02:29:51;20.00;99.90
22192;DHT22;11261;52.456;10.850;2022-08-01T02:32:24;20.00;99.90
22192;DHT22;11261;52.456;10.850;2022-08-01T02:34:56;20.00;99.90
22192;DHT22;11261;52.456;10.850;2022-08-01T02:37:26;19.80;99.90
22192;DHT22;11261;52.456;10.850;2022-08-01T02:39:56;19.90;99.90
22192;DHT22;11261;52.456;10.850;2022-08-01T02:42:26;19.90;99.90
22192;DHT22;11261;52.456;10.850;2022-08-01T02:44:58;19.90;99.90
22192;DHT22;11261;52.456;10.850;2022-08-01T02:47:27;20.00;99.90
22192;DHT22;11261;52.456;10.850;2022-08-01T02:49:59;20.10;99.90
22192;DHT22;11261;52.456;10.850;2022-08-01T02:52:29;20.00;99.90
22192;DHT22;11261;52.456;10.850;2022-08-01T02:55:00;19.90;99.90
22192;DHT22;11261;52.456;10.850;2022-08-01T02:57:29;20.00;99.90
22192;DHT22;11261;52.456;10.850;2022-08-01T03:00:19;20.20;99.90
22192;DHT22;11261;52.456;10.850;2022-08-01T03:02:51;20.10;99.90
22192;DHT22;11261;52.456;10.850;2022-08-01T03:05:22;20.00;99.90
22192;DHT22;11261;52.456;10.850;2022-08-01T03:07:52;19.80;99.90
22192;DHT22;11261;52.456;10.850;2022-08-01T03:10:29;19.90;99.90
22192;DHT22;11261;52.456;10.850;2022-08-01T03:13:00;20.00;99.90
22192;DHT22;11261;52.456;10.850;2022-08-01T03:15:32;20.00;99.90
22192;DHT22;11261;52.456;10.850;2022-08-01T03:18:02;20.10;99.90
22192;DHT22;11261;52.456;10.850;2022-08-01T03:20:33;19.90;99.90
22192;DHT22;11261;52.456;10.850;2022-08-01T03:23:05;20.00;99.90
22192;DHT22;11261;52.456;10.850;2022-08-01T03:25:37;20.10;99.90
22192;DHT22;11261;52.456;10.850;2022-08-01T03:28:08;20.20;99.90
22192;DHT22;11261;52.456;10.850;2022-08-01T03:30:38;19.90;99.90
22192;DHT22;11261;52.456;10.850;2022-08-01T03:33:08;20.10;99.90
22192;DHT22;11261;52.456;10.850;2022-08-01T03:35:53;19.90;99.90
22192;DHT22;11261;52.456;10.850;2022-08-01T03:38:23;19.70;99.90
22192;DHT22;11261;52.456;10.850;2022-08-01T03:40:57;19.60;99.90
22192;DHT22;11261;52.456;10.850;2022-08-01T03:43:32;19.70;99.90
22192;DHT22;11261;52.456;10.850;2022-08-01T03:46:07;19.50;99.90
22192;DHT22;11261;52.456;10.850;2022-08-01T03:48:39;19.50;99.90
22192;DHT22;11261;52.456;10.850;2022-08-01T03:51:09;19.50;99.90
22192;DHT22;11261;52.456;10.850;2022-08-01T03:53:41;19.60;99.90
22192;DHT22;11261;52.456;10.850;2022-08-01T03:56:10;19.70;99.90
22192;DHT22;11261;52.456;10.850;2022-08-01T03:58:39;19.60;99.90
22192;DHT22;11261;52.456;10.850;2022-08-01T04:01:11;19.60;99.90
22192;DHT22;11261;52.456;10.850;2022-08-01T04:03:42;19.40;99.90
22192;DHT22;11261;52.456;10.850;2022-08-01T04:06:11;19.40;99.90
22192;DHT22;11261;52.456;10.850;2022-08-01T04:08:41;19.40;99.90
22192;DHT22;11261;52.456;10.850;2022-08-01T04:11:09;19.40;99.90
22192;DHT22;11261;52.456;10.850;2022-08-01T04:13:38;19.40;99.90
22192;DHT22;11261;52.456;10.850;2022-08-01T04:16:11;19.40;99.90
22192;DHT22;11261;52.456;10.850;2022-08-01T04:18:39;19.30;99.90
22192;DHT22;11261;52.456;10.850;2022-08-01T04:21:08;19.30;99.90
22192;DHT22;11261;52.456;10.850;2022-08-01T04:23:39;19.30;99.90
22192;DHT22;11261;52.456;10.850;2022-08-01T04:26:09;19.40;99.90
22192;DHT22;11261;52.456;10.850;2022-08-01T04:28:39;19.40;99.90
22192;DHT22;11261;52.456;10.850;2022-08-01T04:31:12;19.40;99.90
22192;DHT22;11261;52.456;10.850;2022-08-01T04:33:45;19.50;99.90
22192;DHT22;11261;52.456;10.850;2022-08-01T04:36:14;19.40;99.90
22192;DHT22;11261;52.456;10.850;2022-08-01T04:38:48;19.40;99.90
22192;DHT22;11261;52.456;10.850;2022-08-01T04:41:17;19.40;99.90
22192;DHT22;11261;52.456;10.850;2022-08-01T04:43:46;19.50;99.90
22192;DHT22;11261;52.456;10.850;2022-08-01T04:46:16;19.40;99.90
22192;DHT22;11261;52.456;10.850;2022-08-01T04:48:45;19.40;99.90
22192;DHT22;11261;52.456;10.850;2022-08-01T04:51:15;19.40;99.90
22192;DHT22;11261;52.456;10.850;2022-08-01T04:53:43;19.40;99.90
22192;DHT22;11261;52.456;10.850;2022-08-01T04:56:13;19.50;99.90
22192;DHT22;11261;52.456;10.850;2022-08-01T04:58:41;19.40;99.90
22192;DHT22;11261;52.456;10.850;2022-08-01T05:01:10;19.50;99.90
22192;DHT22;11261;52.456;10.850;2022-08-01T05:03:40;19.40;99.90
22192;DHT22;11261;52.456;10.850;2022-08-01T05:06:08;19.50;99.90
22192;DHT22;11261;52.456;10.850;2022-08-01T05:08:36;19.40;99.90
22192;DHT22;11261;52.456;10.850;2022-08-01T05:11:05;19.60;99.90
22192;DHT22;11261;52.456;10.850;2022-08-01T05:13:33;19.60;99.90
22192;DHT22;11261;52.456;10.850;2022-08-01T05:16:01;19.50;99.90
22192;DHT22;11261;52.456;10.850;2022-08-01T05:18:31;19.50;99.90
22192;DHT22;11261;52.456;10.850;2022-08-01T05:21:00;19.50;99.90
22192;DHT22;11261;52.456;10.850;2022-08-01T05:23:28;19.60;99.90
22192;DHT22;11261;52.456;10.850;2022-08-01T05:26:09;19.40;99.90
22192;DHT22;11261;52.456;10.850;2022-08-01T05:28:40;19.50;99.90
22192;DHT22;11261;52.456;10.850;2022-08-01T05:31:08;19.50;99.90
22192;DHT22;11261;52.456;10.850;2022-08-01T05:33:37;19.50;99.90
22192;DHT22;11261;52.456;10.850;2022-08-01T05:36:06;19.60;99.90
22192;DHT22;11261;52.456;10.850;2022-08-01T05:38:35;19.60;99.90
22192;DHT22;11261;52.456;10.850;2022-08-01T05:41:03;19.60;99.90
22192;DHT22;11261;52.456;10.850;2022-08-01T05:43:31;19.70;99.90
22192;DHT22;11261;52.456;10.850;2022-08-01T05:45:59;19.70;99.90
22192;DHT22;11261;52.456;10.850;2022-08-01T05:48:28;19.70;99.90
22192;DHT22;11261;52.456;10.850;2022-08-01T05:50:57;19.70;99.90
22192;DHT22;11261;52.456;10.850;2022-08-01T05:53:26;19.70;99.90
22192;DHT22;11261;52.456;10.850;2022-08-01T05:55:55;19.90;99.90
22192;DHT22;11261;52.456;10.850;2022-08-01T05:58:23;19.90;99.90
22192;DHT22;11261;52.456;10.850;2022-08-01T06:00:51;19.90;99.90
22192;DHT22;11261;52.456;10.850;2022-08-01T06:03:19;20.00;99.90
22192;DHT22;11261;52.456;10.850;2022-08-01T06:05:47;20.00;99.90
22192;DHT22;11261;52.456;10.850;2022-08-01T06:08:16;19.90;99.90
22192;DHT22;11261;52.456;10.850;2022-08-01T06:10:45;19.80;99.90
22192;DHT22;11261;52.456;10.850;2022-08-01T06:13:13;19.80;99.90
22192;DHT22;11261;52.456;10.850;2022-08-01T06:15:41;19.80;99.90
22192;DHT22;11261;52.456;10.850;2022-08-01T06:18:10;19.80;99.90
22192;DHT22;11261;52.456;10.850;2022-08-01T06:20:38;19.80;99.90
22192;DHT22;11261;52.456;10.850;2022-08-01T06:23:06;19.80;99.90
22192;DHT22;11261;52.456;10.850;2022-08-01T06:25:56;20.00;99.90
22192;DHT22;11261;52.456;10.850;2022-08-01T06:28:25;20.00;99.90
22192;DHT22;11261;52.456;10.850;2022-08-01T06:30:53;20.20;99.90
22192;DHT22;11261;52.456;10.850;2022-08-01T06:33:21;20.30;99.90
22192;DHT22;11261;52.456;10.850;2022-08-01T06:35:49;20.30;99.90
22192;DHT22;11261;52.456;10.850;2022-08-01T06:38:17;20.30;99.90
22192;DHT22;11261;52.456;10.850;2022-08-01T06:40:45;20.50;99.90
22192;DHT22;11261;52.456;10.850;2022-08-01T06:43:15;20.80;99.90
22192;DHT22;11261;52.456;10.850;2022-08-01T06:45:43;20.60;99.90
22192;DHT22;11261;52.456;10.850;2022-08-01T06:48:11;20.50;99.90
22192;DHT22;11261;52.456;10.850;2022-08-01T06:50:39;20.50;99.90
22192;DHT22;11261;52.456;10.850;2022-08-01T06:53:07;20.60;99.90
22192;DHT22;11261;52.456;10.850;2022-08-01T06:55:35;20.80;99.90
22192;DHT22;11261;52.456;10.850;2022-08-01T06:58:03;20.90;99.90
22192;DHT22;11261;52.456;10.850;2022-08-01T07:00:33;21.00;99.90
22192;DHT22;11261;52.456;10.850;2022-08-01T07:03:01;20.90;99.90
22192;DHT22;11261;52.456;10.850;2022-08-01T07:05:29;21.00;99.90
22192;DHT22;11261;52.456;10.850;2022-08-01T07:07:57;20.60;99.90
22192;DHT22;11261;52.456;10.850;2022-08-01T07:10:26;20.80;99.90
22192;DHT22;11261;52.456;10.850;2022-08-01T07:12:54;20.70;99.90
22192;DHT22;11261;52.456;10.850;2022-08-01T07:15:22;20.50;99.90
22192;DHT22;11261;52.456;10.850;2022-08-01T07:17:54;20.50;99.90
22192;DHT22;11261;52.456;10.850;2022-08-01T07:20:24;20.90;99.90
22192;DHT22;11261;52.456;10.850;2022-08-01T07:22:52;21.00;99.90
22192;DHT22;11261;52.456;10.850;2022-08-01T07:25:22;20.90;99.90
22192;DHT22;11261;52.456;10.850;2022-08-01T07:27:51;21.00;99.90
22192;DHT22;11261;52.456;10.850;2022-08-01T07:30:19;21.20;99.90
22192;DHT22;11261;52.456;10.850;2022-08-01T07:32:47;21.10;99.90
22192;DHT22;11261;52.456;10.850;2022-08-01T07:35:17;21.60;99.90
22192;DHT22;11261;52.456;10.850;2022-08-01T07:37:45;22.00;99.90
22192;DHT22;11261;52.456;10.850;2022-08-01T07:40:15;22.50;99.90
22192;DHT22;11261;52.456;10.850;2022-08-01T07:42:44;22.70;99.90
22192;DHT22;11261;52.456;10.850;2022-08-01T07:45:13;23.10;99.90
22192;DHT22;11261;52.456;10.850;2022-08-01T07:47:42;23.30;99.90
22192;DHT22;11261;52.456;10.850;2022-08-01T07:50:10;23.00;99.90
22192;DHT22;11261;52.456;10.850;2022-08-01T07:52:40;23.00;99.90
22192;DHT22;11261;52.456;10.850;2022-08-01T07:55:10;23.00;99.90
22192;DHT22;11261;52.456;10.850;2022-08-01T07:57:42;22.90;99.90
22192;DHT22;11261;52.456;10.850;2022-08-01T08:00:12;23.00;99.90
22192;DHT22;11261;52.456;10.850;2022-08-01T08:02:40;23.00;99.90
22192;DHT22;11261;52.456;10.850;2022-08-01T08:05:08;23.00;99.90
22192;DHT22;11261;52.456;10.850;2022-08-01T08:07:37;23.00;99.90
22192;DHT22;11261;52.456;10.850;2022-08-01T08:10:08;23.20;99.90
22192;DHT22;11261;52.456;10.850;2022-08-01T08:12:36;23.00;99.90
22192;DHT22;11261;52.456;10.850;2022-08-01T08:15:05;22.80;99.90
22192;DHT22;11261;52.456;10.850;2022-08-01T08:17:33;22.40;99.90
22192;DHT22;11261;52.456;10.850;2022-08-01T08:20:03;22.40;99.90
22192;DHT22;11261;52.456;10.850;2022-08-01T08:22:35;22.40;99.90
22192;DHT22;11261;52.456;10.850;2022-08-01T08:25:05;22.70;99.90
22192;DHT22;11261;52.456;10.850;2022-08-01T08:27:35;22.80;99.90
22192;DHT22;11261;52.456;10.850;2022-08-01T08:30:05;23.30;99.90
22192;DHT22;11261;52.456;10.850;2022-08-01T08:32:34;23.40;99.90
22192;DHT22;11261;52.456;10.850;2022-08-01T08:35:03;23.50;99.90
22192;DHT22;11261;52.456;10.850;2022-08-01T08:37:32;23.30;99.90
22192;DHT22;11261;52.456;10.850;2022-08-01T08:40:06;23.30;99.90
22192;DHT22;11261;52.456;10.850;2022-08-01T08:42:36;23.30;99.90
22192;DHT22;11261;52.456;10.850;2022-08-01T08:45:08;23.40;99.90
22192;DHT22;11261;52.456;10.850;2022-08-01T08:47:38;23.20;99.90
22192;DHT22;11261;52.456;10.850;2022-08-01T08:50:07;23.20;99.90
22192;DHT22;11261;52.456;10.850;2022-08-01T08:52:38;23.50;99.90
22192;DHT22;11261;52.456;10.850;2022-08-01T08:55:08;23.40;99.90
22192;DHT22;11261;52.456;10.850;2022-08-01T08:57:39;23.30;99.90
22192;DHT22;11261;52.456;10.850;2022-08-01T09:00:09;23.60;99.90
22192;DHT22;11261;52.456;10.850;2022-08-01T09:02:41;23.10;99.90
22192;DHT22;11261;52.456;10.850;2022-08-01T09:05:10;23.00;99.90
22192;DHT22;11261;52.456;10.850;2022-08-01T09:07:44;23.00;99.90
22192;DHT22;11261;52.456;10.850;2022-08-01T09:10:12;23.20;99.90
22192;DHT22;11261;52.456;10.850;2022-08-01T09:13:02;23.30;99.90
22192;DHT22;11261;52.456;10.850;2022-08-01T09:15:38;23.20;99.90
22192;DHT22;11261;52.456;10.850;2022-08-01T09:18:07;23.10;99.90
22192;DHT22;11261;52.456;10.850;2022-08-01T09:20:35;22.90;99.90
22192;DHT22;11261;52.456;10.850;2022-08-01T09:23:04;23.00;99.90
22192;DHT22;11261;52.456;10.850;2022-08-01T09:25:50;23.00;99.90
22192;DHT22;11261;52.456;10.850;2022-08-01T09:28:29;23.00;99.90
22192;DHT22;11261;52.456;10.850;2022-08-01T09:30:58;22.90;99.90
22192;DHT22;11261;52.456;10.850;2022-08-01T09:33:47;23.20;99.90
22192;DHT22;11261;52.456;10.850;2022-08-01T09:36:18;23.10;99.90
22192;DHT22;11261;52.456;10.850;2022-08-01T09:38:46;23.20;99.90
22192;DHT22;11261;52.456;10.850;2022-08-01T09:41:17;23.20;99.90
22192;DHT22;11261;52.456;10.850;2022-08-01T09:43:51;23.20;99.90
22192;DHT22;11261;52.456;10.850;2022-08-01T09:46:19;23.50;99.90
22192;DHT22;11261;52.456;10.850;2022-08-01T09:48:56;23.40;99.90
22192;DHT22;11261;52.456;10.850;2022-08-01T09:51:31;23.80;99.90
22192;DHT22;11261;52.456;10.850;2022-08-01T09:54:29;24.10;99.90
22192;DHT22;11261;52.456;10.850;2022-08-01T09:57:09;23.90;99.90
22192;DHT22;11261;52.456;10.850;2022-08-01T09:59:40;23.90;99.90
22192;DHT22;11261;52.456;10.850;2022-08-01T10:02:30;23.70;99.90
22192;DHT22;11261;52.456;10.850;2022-08-01T10:05:01;23.70;99.90
22192;DHT22;11261;52.456;10.850;2022-08-01T10:07:35;23.60;99.90
22192;DHT22;11261;52.456;10.850;2022-08-01T10:10:11;24.10;99.90
22192;DHT22;11261;52.456;10.850;2022-08-01T10:12:41;24.40;99.90
22192;DHT22;11261;52.456;10.850;2022-08-01T10:15:15;24.20;99.90
22192;DHT22;11261;52.456;10.850;2022-08-01T10:17:50;24.00;99.90
22192;DHT22;11261;52.456;10.850;2022-08-01T10:20:25;24.20;99.90
22192;DHT22;11261;52.456;10.850;2022-08-01T10:22:59;24.00;99.90
22192;DHT22;11261;52.456;10.850;2022-08-01T10:25:37;24.10;99.90
22192;DHT22;11261;52.456;10.850;2022-08-01T10:28:14;24.20;99.90
22192;DHT22;11261;52.456;10.850;2022-08-01T10:30:51;23.70;99.90
22192;DHT22;11261;52.456;10.850;2022-08-01T10:33:22;23.70;99.90
22192;DHT22;11261;52.456;10.850;2022-08-01T10:36:11;23.80;99.90
22192;DHT22;11261;52.456;10.850;2022-08-01T10:38:39;23.60;99.90
22192;DHT22;11261;52.456;10.850;2022-08-01T10:41:09;23.60;99.90
22192;DHT22;11261;52.456;10.850;2022-08-01T10:43:42;23.80;99.90
22192;DHT22;11261;52.456;10.850;2022-08-01T10:46:14;24.00;99.90
22192;DHT22;11261;52.456;10.850;2022-08-01T10:48:50;24.00;99.90
22192;DHT22;11261;52.456;10.850;2022-08-01T10:51:21;24.10;99.90
22192;DHT22;11261;52.456;10.850;2022-08-01T10:54:10;24.00;99.90
22192;DHT22;11261;52.456;10.850;2022-08-01T10:56:40;24.00;99.90
22192;DHT22;11261;52.456;10.850;2022-08-01T10:59:14;24.00;99.90
22192;DHT22;11261;52.456;10.850;2022-08-01T11:02:05;24.00;99.90
22192;DHT22;11261;52.456;10.850;2022-08-01T11:04:40;24.00;99.90
22192;DHT22;11261;52.456;10.850;2022-08-01T11:07:16;23.80;99.90
22192;DHT22;11261;52.456;10.850;2022-08-01T11:10:02;23.70;99.90
22192;DHT22;11261;52.456;10.850;2022-08-01T11:12:41;23.80;99.90
22192;DHT22;11261;52.456;10.850;2022-08-01T11:15:22;23.70;99.90
22192;DHT22;11261;52.456;10.850;2022-08-01T11:18:03;23.50;99.90
22192;DHT22;11261;52.456;10.850;2022-08-01T11:20:33;23.40;99.90
22192;DHT22;11261;52.456;10.850;2022-08-01T11:23:17;23.90;99.90
22192;DHT22;11261;52.456;10.850;2022-08-01T11:26:17;24.70;99.90
22192;DHT22;11261;52.456;10.850;2022-08-01T11:29:13;24.70;99.90
22192;DHT22;11261;52.456;10.850;2022-08-01T11:31:49;24.60;99.90
22192;DHT22;11261;52.456;10.850;2022-08-01T11:34:52;24.50;99.90
22192;DHT22;11261;52.456;10.850;2022-08-01T11:37:25;24.40;99.90
22192;DHT22;11261;52.456;10.850;2022-08-01T11:40:16;24.50;99.90
22192;DHT22;11261;52.456;10.850;2022-08-01T11:42:45;24.60;99.90
22192;DHT22;11261;52.456;10.850;2022-08-01T11:45:13;24.60;99.90
22192;DHT22;11261;52.456;10.850;2022-08-01T11:47:46;24.70;99.90
22192;DHT22;11261;52.456;10.850;2022-08-01T11:50:36;24.60;99.90
22192;DHT22;11261;52.456;10.850;2022-08-01T11:53:07;24.50;99.90
22192;DHT22;11261;52.456;10.850;2022-08-01T11:55:37;24.50;99.90
22192;DHT22;11261;52.456;10.850;2022-08-01T11:58:21;24.90;99.90
22192;DHT22;11261;52.456;10.850;2022-08-01T12:00:58;25.30;99.90
22192;DHT22;11261;52.456;10.850;2022-08-01T12:03:28;25.30;99.90
22192;DHT22;11261;52.456;10.850;2022-08-01T12:06:01;25.30;99.90
22192;DHT22;11261;52.456;10.850;2022-08-01T12:08:32;25.60;99.90
22192;DHT22;11261;52.456;10.850;2022-08-01T12:11:03;25.30;99.90
22192;DHT22;11261;52.456;10.850;2022-08-01T12:13:39;25.60;99.90
22192;DHT22;11261;52.456;10.850;2022-08-01T12:16:09;25.40;99.90
22192;DHT22;11261;52.456;10.850;2022-08-01T12:18:38;24.90;99.90
22192;DHT22;11261;52.456;10.850;2022-08-01T12:21:08;24.90;99.90
22192;DHT22;11261;52.456;10.850;2022-08-01T12:23:36;25.30;99.90
22192;DHT22;11261;52.456;10.850;2022-08-01T12:26:04;25.60;99.90
22192;DHT22;11261;52.456;10.850;2022-08-01T12:28:39;25.30;99.90
22192;DHT22;11261;52.456;10.850;2022-08-01T12:31:07;25.40;99.90
22192;DHT22;11261;52.456;10.850;2022-08-01T12:33:38;25.60;99.90
22192;DHT22;11261;52.456;10.850;2022-08-01T12:36:08;26.00;99.90
22192;DHT22;11261;52.456;10.850;2022-08-01T12:38:40;26.00;99.90
22192;DHT22;11261;52.456;10.850;2022-08-01T12:41:10;26.30;99.90
22192;DHT22;11261;52.456;10.850;2022-08-01T12:43:39;26.40;99.90
22192;DHT22;11261;52.456;10.850;2022-08-01T12:46:07;26.40;99.90
22192;DHT22;11261;52.456;10.850;2022-08-01T12:48:43;26.40;99.90
22192;DHT22;11261;52.456;10.850;2022-08-01T12:51:12;26.40;99.90
22192;DHT22;11261;52.456;10.850;2022-08-01T12:53:40;26.70;99.90
22192;DHT22;11261;52.456;10.850;2022-08-01T12:56:09;26.40;99.90
22192;DHT22;11261;52.456;10.850;2022-08-01T12:58:38;26.10;99.90
22192;DHT22;11261;52.456;10.850;2022-08-01T13:01:08;26.30;99.90
22192;DHT22;11261;52.456;10.850;2022-08-01T13:03:37;26.20;99.90
22192;DHT22;11261;52.456;10.850;2022-08-01T13:06:12;26.40;99.90
22192;DHT22;11261;52.456;10.850;2022-08-01T13:08:43;26.40;99.90
22192;DHT22;11261;52.456;10.850;2022-08-01T13:11:13;26.30;99.90
22192;DHT22;11261;52.456;10.850;2022-08-01T13:13:44;26.20;99.90
22192;DHT22;11261;52.456;10.850;2022-08-01T13:16:14;26.00;99.90
22192;DHT22;11261;52.456;10.850;2022-08-01T13:19:03;25.90;99.90
22192;DHT22;11261;52.456;10.850;2022-08-01T13:21:33;26.00;99.90
22192;DHT22;11261;52.456;10.850;2022-08-01T13:24:24;26.00;99.90
22192;DHT22;11261;52.456;10.850;2022-08-01T13:26:55;26.00;99.90
22192;DHT22;11261;52.456;10.850;2022-08-01T13:29:32;26.00;99.90
22192;DHT22;11261;52.456;10.850;2022-08-01T13:32:12;26.60;99.90
22192;DHT22;11261;52.456;10.850;2022-08-01T13:35:01;26.30;99.90
22192;DHT22;11261;52.456;10.850;2022-08-01T13:37:31;26.30;99.90
22192;DHT22;11261;52.456;10.850;2022-08-01T13:39:59;26.40;99.90
22192;DHT22;11261;52.456;10.850;2022-08-01T13:42:27;26.50;99.90
22192;DHT22;11261;52.456;10.850;2022-08-01T13:44:56;26.80;99.90
22192;DHT22;11261;52.456;10.850;2022-08-01T13:47:25;27.10;99.90
22192;DHT22;11261;52.456;10.850;2022-08-01T13:49:58;27.00;99.90
22192;DHT22;11261;52.456;10.850;2022-08-01T13:52:28;27.50;99.90
22192;DHT22;11261;52.456;10.850;2022-08-01T13:54:59;27.20;99.90
22192;DHT22;11261;52.456;10.850;2022-08-01T13:57:28;27.00;99.90
22192;DHT22;11261;52.456;10.850;2022-08-01T14:00:04;26.70;99.90
22192;DHT22;11261;52.456;10.850;2022-08-01T14:02:32;26.80;99.90
22192;DHT22;11261;52.456;10.850;2022-08-01T14:05:01;26.70;99.90
22192;DHT22;11261;52.456;10.850;2022-08-01T14:07:29;26.70;99.90
22192;DHT22;11261;52.456;10.850;2022-08-01T14:09:59;26.70;99.90
22192;DHT22;11261;52.456;10.850;2022-08-01T14:12:46;26.50;99.90
22192;DHT22;11261;52.456;10.850;2022-08-01T14:15:14;26.90;99.90
22192;DHT22;11261;52.456;10.850;2022-08-01T14:18:03;26.60;99.90
22192;DHT22;11261;52.456;10.850;2022-08-01T14:20:32;26.30;99.90
22192;DHT22;11261;52.456;10.850;2022-08-01T14:23:01;26.10;99.90
22192;DHT22;11261;52.456;10.850;2022-08-01T14:25:35;26.10;99.90
22192;DHT22;11261;52.456;10.850;2022-08-01T14:28:24;26.30;99.90
22192;DHT22;11261;52.456;10.850;2022-08-01T14:30:54;26.10;99.90
22192;DHT22;11261;52.456;10.850;2022-08-01T14:33:23;26.10;99.90
22192;DHT22;11261;52.456;10.850;2022-08-01T14:35:51;26.50;99.90
22192;DHT22;11261;52.456;10.850;2022-08-01T14:38:32;26.30;99.90
22192;DHT22;11261;52.456;10.850;2022-08-01T14:41:02;25.60;99.90
22192;DHT22;11261;52.456;10.850;2022-08-01T14:43:30;25.70;99.90
22192;DHT22;11261;52.456;10.850;2022-08-01T14:46:00;25.90;99.90
22192;DHT22;11261;52.456;10.850;2022-08-01T14:48:30;25.70;99.90
22192;DHT22;11261;52.456;10.850;2022-08-01T14:50:58;25.90;99.90
22192;DHT22;11261;52.456;10.850;2022-08-01T14:53:29;25.90;99.90
22192;DHT22;11261;52.456;10.850;2022-08-01T14:56:03;26.00;99.90
22192;DHT22;11261;52.456;10.850;2022-08-01T14:58:31;26.10;99.90
22192;DHT22;11261;52.456;10.850;2022-08-01T15:01:00;26.00;99.90
22192;DHT22;11261;52.456;10.850;2022-08-01T15:03:28;26.10;99.90
22192;DHT22;11261;52.456;10.850;2022-08-01T15:05:58;26.10;99.90
22192;DHT22;11261;52.456;10.850;2022-08-01T15:08:27;25.70;99.90
22192;DHT22;11261;52.456;10.850;2022-08-01T15:10:56;26.00;99.90
22192;DHT22;11261;52.456;10.850;2022-08-01T15:13:26;26.30;99.90
22192;DHT22;11261;52.456;10.850;2022-08-01T15:15:54;26.30;99.90
22192;DHT22;11261;52.456;10.850;2022-08-01T15:18:26;26.20;99.90
22192;DHT22;11261;52.456;10.850;2022-08-01T15:20:54;26.10;99.90
22192;DHT22;11261;52.456;10.850;2022-08-01T15:23:24;25.70;99.90
22192;DHT22;11261;52.456;10.850;2022-08-01T15:25:52;25.70;99.90
22192;DHT22;11261;52.456;10.850;2022-08-01T15:28:20;26.10;99.90
22192;DHT22;11261;52.456;10.850;2022-08-01T15:30:49;25.80;99.90
22192;DHT22;11261;52.456;10.850;2022-08-01T15:33:18;25.60;99.90
22192;DHT22;11261;52.456;10.850;2022-08-01T15:35:48;25.70;99.90
22192;DHT22;11261;52.456;10.850;2022-08-01T15:38:18;25.80;99.90
22192;DHT22;11261;52.456;10.850;2022-08-01T15:40:48;25.70;99.90
22192;DHT22;11261;52.456;10.850;2022-08-01T15:43:16;25.40;99.90
22192;DHT22;11261;52.456;10.850;2022-08-01T15:45:44;25.60;99.90
22192;DHT22;11261;52.456;10.850;2022-08-01T15:48:16;25.80;99.90
22192;DHT22;11261;52.456;10.850;2022-08-01T15:50:44;25.80;99.90
22192;DHT22;11261;52.456;10.850;2022-08-01T15:53:12;25.60;99.90